Time;durP1;ratioP1;P1;durP2;ratioP2;P2;SDS_P1;SDS_P2;PMS_P1;PMS_P2;Temp;Humidity;BMP_temperature;BMP_pressure;BME280_temperature;BME280_humidity;BME280_pressure;Samples;Min_cycle;Max_cycle;Signal;HPM_P1;HPM_P2
2024/03/05 00:01:39;;;;;;;35.13;17.67;;;;;;;;;;5073900;28;20081;-58
2024/03/05 00:04:05;;;;;;;37.67;18.10;;;;;;;;;;5090160;28;20035;-56
2024/03/05 00:06:32;;;;;;;38.50;18.88;;;;;;;;;;5094330;28;20031;-57
2024/03/05 00:08:58;;;;;;;38.40;17.65;;;;;;;;;;5096723;28;20051;-58
2024/03/05 00:11:24;;;;;;;30.10;17.48;;;;;;;;;;5093542;28;20031;-58
2024/03/05 00:13:52;;;;;;;33.53;18.08;;;;;;;;;;5091798;28;20031;-57
2024/03/05 00:16:18;;;;;;;33.10;18.90;;;;;;;;;;5091719;28;20078;-59
2024/03/05 00:18:45;;;;;;;34.05;17.48;;;;;;;;;;5091203;28;20055;-57
2024/03/05 00:21:13;;;;;;;41.28;18.30;;;;;;;;;;5101943;28;20047;-59
2024/03/05 00:23:39;;;;;;;34.08;16.90;;;;;;;;;;5107413;28;20038;-58
2024/03/05 00:26:05;;;;;;;36.08;17.48;;;;;;;;;;5105219;28;20028;-58
2024/03/05 00:28:31;;;;;;;32.35;15.82;;;;;;;;;;5108515;28;20390;-58
2024/03/05 00:30:57;;;;;;;32.50;18.23;;;;;;;;;;5092178;28;20020;-59
2024/03/05 00:33:24;;;;;;;34.65;17.48;;;;;;;;;;5091247;28;20162;-57
2024/03/05 00:35:50;;;;;;;34.03;17.05;;;;;;;;;;5101075;28;20039;-58
2024/03/05 00:38:16;;;;;;;30.65;16.98;;;;;;;;;;5107212;28;20032;-58
2024/03/05 00:40:42;;;;;;;32.60;17.05;;;;;;;;;;5108200;28;20074;-58
2024/03/05 00:43:08;;;;;;;32.22;16.00;;;;;;;;;;5108492;28;20026;-59
2024/03/05 00:45:35;;;;;;;30.23;15.60;;;;;;;;;;5095031;28;20024;-58
2024/03/05 00:48:01;;;;;;;33.55;15.88;;;;;;;;;;5099952;28;20039;-59
2024/03/05 00:50:27;;;;;;;34.03;16.10;;;;;;;;;;5105398;28;20025;-58
2024/03/05 00:52:53;;;;;;;34.20;16.75;;;;;;;;;;5091165;28;20032;-58
2024/03/05 00:55:19;;;;;;;33.22;17.05;;;;;;;;;;5091879;28;20024;-58
2024/03/05 00:57:45;;;;;;;29.08;15.23;;;;;;;;;;5094265;28;20028;-56
2024/03/05 01:00:14;;;;;;;34.00;16.13;;;;;;;;;;5108008;28;20031;-58
2024/03/05 01:02:44;;;;;;;38.50;16.70;;;;;;;;;;5099257;28;20154;-57
2024/03/05 01:05:10;;;;;;;28.83;15.57;;;;;;;;;;5091749;28;20051;-58
2024/03/05 01:07:36;;;;;;;32.33;15.52;;;;;;;;;;5106632;28;20106;-58
2024/03/05 01:10:04;;;;;;;34.92;15.85;;;;;;;;;;5109273;28;20019;-58
2024/03/05 01:12:30;;;;;;;27.85;15.05;;;;;;;;;;5093481;28;20034;-57
2024/03/05 01:14:56;;;;;;;32.05;16.13;;;;;;;;;;5096953;28;20476;-58
2024/03/05 01:17:22;;;;;;;28.60;14.77;;;;;;;;;;5096361;28;20043;-54
2024/03/05 01:19:48;;;;;;;29.63;14.85;;;;;;;;;;5095300;28;20024;-56
2024/03/05 01:22:14;;;;;;;28.30;14.85;;;;;;;;;;5097374;28;20522;-55
2024/03/05 01:24:40;;;;;;;26.08;14.38;;;;;;;;;;5107671;28;20028;-56
2024/03/05 01:27:06;;;;;;;27.10;13.98;;;;;;;;;;5113626;28;20020;-56
2024/03/05 01:29:32;;;;;;;28.25;14.68;;;;;;;;;;5096173;28;20522;-55
2024/03/05 01:31:59;;;;;;;32.63;16.30;;;;;;;;;;5094827;28;20472;-56
2024/03/05 01:34:26;;;;;;;29.00;14.75;;;;;;;;;;5094394;28;20036;-54
2024/03/05 01:36:57;;;;;;;27.90;14.45;;;;;;;;;;5102962;28;20300;-55
2024/03/05 01:39:24;;;;;;;25.73;13.90;;;;;;;;;;5098670;28;20096;-56
2024/03/05 01:41:52;;;;;;;28.80;13.27;;;;;;;;;;5109796;28;20059;-55
2024/03/05 01:44:18;;;;;;;28.88;13.63;;;;;;;;;;5101554;28;20035;-55
2024/03/05 01:46:45;;;;;;;25.83;13.70;;;;;;;;;;5112722;28;20031;-55
2024/03/05 01:49:11;;;;;;;27.75;12.43;;;;;;;;;;5095019;28;20020;-56
2024/03/05 01:51:37;;;;;;;33.88;15.20;;;;;;;;;;5094170;28;20530;-56
2024/03/05 01:54:05;;;;;;;27.23;13.68;;;;;;;;;;5075676;28;20028;-56
2024/03/05 01:56:31;;;;;;;24.17;12.77;;;;;;;;;;5095871;28;20051;-55
2024/03/05 01:58:57;;;;;;;26.52;14.05;;;;;;;;;;5098554;28;20101;-55
2024/03/05 02:01:24;;;;;;;33.03;13.70;;;;;;;;;;5094648;28;20168;-56
2024/03/05 02:03:50;;;;;;;29.15;14.85;;;;;;;;;;5094127;28;20107;-56
2024/03/05 02:06:16;;;;;;;29.35;13.38;;;;;;;;;;5094606;28;20471;-55
2024/03/05 02:08:43;;;;;;;26.42;13.55;;;;;;;;;;5085810;28;20055;-54
2024/03/05 02:11:09;;;;;;;31.05;13.85;;;;;;;;;;5094111;28;20031;-56
2024/03/05 02:13:37;;;;;;;25.92;13.40;;;;;;;;;;5094029;28;20106;-55
2024/03/05 02:16:04;;;;;;;28.75;13.82;;;;;;;;;;5094358;28;20056;-55
2024/03/05 02:18:30;;;;;;;31.67;14.45;;;;;;;;;;5089240;28;20055;-56
2024/03/05 02:20:59;;;;;;;31.88;15.20;;;;;;;;;;5087933;28;20372;-56
2024/03/05 02:23:25;;;;;;;34.53;13.82;;;;;;;;;;5081661;28;20028;-55
2024/03/05 02:25:51;;;;;;;27.75;14.23;;;;;;;;;;5080875;28;20033;-55
2024/03/05 02:28:17;;;;;;;32.97;14.27;;;;;;;;;;5087230;28;20016;-55
2024/03/05 02:30:43;;;;;;;35.88;14.35;;;;;;;;;;5074818;28;20024;-56
2024/03/05 02:33:10;;;;;;;26.60;13.73;;;;;;;;;;5072223;28;20514;-56
2024/03/05 02:35:36;;;;;;;24.67;12.77;;;;;;;;;;5084794;28;20161;-56
2024/03/05 02:38:05;;;;;;;30.75;13.77;;;;;;;;;;5077694;28;20754;-55
2024/03/05 02:40:31;;;;;;;26.00;13.40;;;;;;;;;;5075360;28;20524;-55
2024/03/05 02:42:58;;;;;;;28.30;13.55;;;;;;;;;;5076157;28;20176;-55
2024/03/05 02:45:24;;;;;;;27.00;14.10;;;;;;;;;;5093573;28;20020;-55
2024/03/05 02:47:51;;;;;;;30.85;14.13;;;;;;;;;;5081849;28;20032;-56
2024/03/05 02:50:19;;;;;;;26.00;14.07;;;;;;;;;;5077371;28;20020;-56
2024/03/05 02:52:45;;;;;;;23.13;12.77;;;;;;;;;;5083755;28;20064;-56
2024/03/05 02:55:11;;;;;;;28.48;13.93;;;;;;;;;;5077009;28;20047;-56
2024/03/05 02:57:44;;;;;;;27.40;13.20;;;;;;;;;;5076641;28;20057;-55
2024/03/05 03:00:18;;;;;;;28.38;14.32;;;;;;;;;;5078545;28;20024;-56
2024/03/05 03:02:46;;;;;;;32.03;13.30;;;;;;;;;;5090659;28;20504;-55
2024/03/05 03:05:13;;;;;;;31.17;15.30;;;;;;;;;;5079970;28;20020;-55
2024/03/05 03:07:38;;;;;;;29.85;15.00;;;;;;;;;;5084490;28;20017;-53
2024/03/05 03:10:09;;;;;;;33.17;15.82;;;;;;;;;;5077834;28;20036;-54
2024/03/05 03:12:36;;;;;;;31.20;14.90;;;;;;;;;;5092790;28;20103;-54
2024/03/05 03:15:02;;;;;;;28.17;14.23;;;;;;;;;;5077653;28;20051;-54
2024/03/05 03:17:28;;;;;;;25.52;14.13;;;;;;;;;;5090812;28;20426;-54
2024/03/05 03:19:54;;;;;;;28.63;14.25;;;;;;;;;;5099586;28;20024;-53
2024/03/05 03:22:20;;;;;;;32.78;14.30;;;;;;;;;;5107515;28;20032;-54
2024/03/05 03:24:48;;;;;;;35.63;15.00;;;;;;;;;;5101138;28;20028;-54
2024/03/05 03:27:14;;;;;;;28.13;14.55;;;;;;;;;;5106180;28;20501;-54
2024/03/05 03:29:40;;;;;;;33.90;14.23;;;;;;;;;;5096475;28;20042;-53
2024/03/05 03:32:10;;;;;;;35.03;15.68;;;;;;;;;;5107842;28;20036;-53
2024/03/05 03:34:36;;;;;;;31.75;14.57;;;;;;;;;;5086462;28;20024;-51
2024/03/05 03:37:02;;;;;;;31.02;15.32;;;;;;;;;;5092708;28;20101;-52
2024/03/05 03:39:28;;;;;;;34.38;16.17;;;;;;;;;;5093402;28;20395;-52
2024/03/05 03:41:54;;;;;;;35.33;16.70;;;;;;;;;;5111919;28;20110;-54
2024/03/05 03:44:21;;;;;;;29.73;14.60;;;;;;;;;;5110523;28;20042;-54
2024/03/05 03:46:47;;;;;;;31.15;15.57;;;;;;;;;;5106874;28;20027;-55
2024/03/05 03:49:14;;;;;;;27.23;14.60;;;;;;;;;;5104765;28;20479;-53
2024/03/05 03:51:40;;;;;;;28.58;15.13;;;;;;;;;;5093006;28;20032;-52
2024/03/05 03:54:06;;;;;;;32.35;15.25;;;;;;;;;;5101901;28;20061;-55
2024/03/05 03:56:34;;;;;;;29.25;14.65;;;;;;;;;;5111053;28;20063;-53
2024/03/05 03:59:00;;;;;;;35.15;15.82;;;;;;;;;;5101818;28;20024;-56
2024/03/05 04:01:26;;;;;;;27.30;14.25;;;;;;;;;;5100621;28;20754;-56
2024/03/05 04:03:52;;;;;;;30.25;14.70;;;;;;;;;;5106416;28;20126;-52
2024/03/05 04:06:19;;;;;;;35.45;15.85;;;;;;;;;;5104850;28;20505;-52
2024/03/05 04:08:44;;;;;;;32.30;16.13;;;;;;;;;;5096851;28;20033;-53
2024/03/05 04:11:10;;;;;;;30.02;15.45;;;;;;;;;;5095860;28;20439;-53
2024/03/05 04:13:38;;;;;;;27.50;15.30;;;;;;;;;;5091071;28;20403;-52
2024/03/05 04:16:04;;;;;;;32.20;15.35;;;;;;;;;;5091980;28;20111;-54
2024/03/05 04:18:30;;;;;;;35.22;14.95;;;;;;;;;;5078004;28;20048;-58
2024/03/05 04:20:56;;;;;;;33.25;14.95;;;;;;;;;;5077738;28;20072;-58
2024/03/05 04:23:22;;;;;;;31.83;14.32;;;;;;;;;;5078879;28;20021;-56
2024/03/05 04:25:50;;;;;;;34.00;15.95;;;;;;;;;;5089470;28;20593;-58
2024/03/05 04:28:16;;;;;;;27.80;14.10;;;;;;;;;;5090698;28;20024;-58
2024/03/05 04:30:46;;;;;;;29.30;14.50;;;;;;;;;;5087107;28;20020;-57
2024/03/05 04:33:15;;;;;;;32.95;15.18;;;;;;;;;;5081027;28;20029;-57
2024/03/05 04:35:42;;;;;;;29.48;14.60;;;;;;;;;;5079786;28;20024;-57
2024/03/05 04:38:08;;;;;;;30.63;13.65;;;;;;;;;;5086290;28;20028;-56
2024/03/05 04:40:37;;;;;;;32.53;14.65;;;;;;;;;;5075749;28;20032;-57
2024/03/05 04:43:05;;;;;;;36.42;15.38;;;;;;;;;;5089375;28;20082;-57
2024/03/05 04:45:32;;;;;;;28.27;15.77;;;;;;;;;;5093211;28;20024;-57
2024/03/05 04:47:58;;;;;;;37.03;16.42;;;;;;;;;;5095796;28;20460;-58
2024/03/05 04:50:24;;;;;;;44.97;19.38;;;;;;;;;;5085590;28;20024;-58
2024/03/05 04:52:52;;;;;;;46.22;24.95;;;;;;;;;;5069628;28;20024;-58
2024/03/05 04:55:18;;;;;;;38.15;16.13;;;;;;;;;;5081411;28;20020;-56
2024/03/05 04:57:44;;;;;;;35.53;14.80;;;;;;;;;;5093552;28;20432;-57
2024/03/05 05:00:20;;;;;;;30.75;16.20;;;;;;;;;;5084256;28;20032;-58
2024/03/05 05:02:47;;;;;;;29.88;15.68;;;;;;;;;;5068130;28;20133;-56
2024/03/05 05:05:13;;;;;;;28.50;14.13;;;;;;;;;;5081345;28;20188;-58
2024/03/05 05:07:39;;;;;;;31.08;14.93;;;;;;;;;;5082971;28;20041;-59
2024/03/05 05:10:07;;;;;;;27.85;15.07;;;;;;;;;;5082338;28;20035;-58
2024/03/05 05:12:33;;;;;;;33.17;13.93;;;;;;;;;;5090591;28;20034;-57
2024/03/05 05:15:00;;;;;;;35.90;15.20;;;;;;;;;;5082148;28;20140;-58
2024/03/05 05:17:26;;;;;;;25.98;14.70;;;;;;;;;;5075058;28;20056;-57
2024/03/05 05:19:52;;;;;;;36.28;17.17;;;;;;;;;;5076783;28;20456;-57
2024/03/05 05:22:18;;;;;;;38.05;20.92;;;;;;;;;;5073224;28;20553;-58
2024/03/05 05:24:44;;;;;;;52.38;25.55;;;;;;;;;;5077795;28;20025;-58
2024/03/05 05:27:10;;;;;;;31.02;14.32;;;;;;;;;;5079366;28;20429;-58
2024/03/05 05:29:37;;;;;;;30.23;14.27;;;;;;;;;;5078679;28;20043;-57
2024/03/05 05:32:06;;;;;;;30.70;14.43;;;;;;;;;;5092114;28;20463;-60
2024/03/05 05:34:32;;;;;;;33.92;17.77;;;;;;;;;;5079660;28;20028;-58
2024/03/05 05:36:58;;;;;;;27.20;14.82;;;;;;;;;;5080881;28;20029;-58
2024/03/05 05:39:24;;;;;;;28.88;13.82;;;;;;;;;;5082979;28;20036;-58
2024/03/05 05:41:53;;;;;;;27.48;14.43;;;;;;;;;;5075504;28;20017;-58
2024/03/05 05:44:19;;;;;;;27.52;12.95;;;;;;;;;;5074183;28;20472;-58
2024/03/05 05:46:45;;;;;;;25.90;13.80;;;;;;;;;;5076002;28;20020;-58
2024/03/05 05:49:14;;;;;;;28.40;15.13;;;;;;;;;;5076646;28;20399;-58
2024/03/05 05:51:40;;;;;;;30.00;13.88;;;;;;;;;;5074951;28;20039;-58
2024/03/05 05:54:10;;;;;;;24.75;13.52;;;;;;;;;;5084916;28;20029;-55
2024/03/05 05:56:36;;;;;;;23.10;12.48;;;;;;;;;;5087226;28;20029;-58
2024/03/05 05:59:05;;;;;;;30.70;12.63;;;;;;;;;;5084204;28;20447;-58
2024/03/05 06:01:33;;;;;;;27.58;12.55;;;;;;;;;;5070730;28;20107;-58
2024/03/05 06:03:59;;;;;;;34.15;13.93;;;;;;;;;;5073900;28;20047;-58
2024/03/05 06:06:25;;;;;;;30.08;13.10;;;;;;;;;;5075293;28;20033;-58
2024/03/05 06:08:51;;;;;;;25.70;13.02;;;;;;;;;;5072257;28;20032;-58
2024/03/05 06:11:17;;;;;;;31.58;15.90;;;;;;;;;;5074900;28;20025;-58
2024/03/05 06:13:44;;;;;;;32.20;15.05;;;;;;;;;;5075744;28;20033;-58
2024/03/05 06:16:10;;;;;;;28.23;13.63;;;;;;;;;;5084212;28;20021;-58
2024/03/05 06:18:37;;;;;;;22.88;12.40;;;;;;;;;;5075551;28;20044;-57
2024/03/05 06:21:06;;;;;;;32.55;13.02;;;;;;;;;;5079779;28;20032;-58
2024/03/05 06:23:32;;;;;;;28.98;13.27;;;;;;;;;;5076500;28;20043;-59
2024/03/05 06:25:58;;;;;;;27.30;12.73;;;;;;;;;;5078875;28;20389;-58
2024/03/05 06:28:25;;;;;;;25.05;13.02;;;;;;;;;;5072922;28;20056;-57
2024/03/05 06:30:51;;;;;;;28.90;13.20;;;;;;;;;;5078025;28;20095;-58
2024/03/05 06:33:18;;;;;;;24.38;13.40;;;;;;;;;;5076086;28;20952;-58
2024/03/05 06:35:44;;;;;;;26.75;13.48;;;;;;;;;;5072774;28;20071;-58
2024/03/05 06:38:10;;;;;;;34.30;13.98;;;;;;;;;;5069872;28;20400;-55
2024/03/05 06:40:36;;;;;;;28.88;12.75;;;;;;;;;;5063612;28;20468;-55
2024/03/05 06:43:13;;;;;;;27.15;14.00;;;;;;;;;;5072228;28;20083;-54
2024/03/05 06:45:42;;;;;;;26.77;11.93;;;;;;;;;;5072465;28;20032;-54
2024/03/05 06:48:08;;;;;;;23.42;12.73;;;;;;;;;;5072621;28;20028;-55
2024/03/05 06:50:36;;;;;;;32.95;13.30;;;;;;;;;;5081379;28;20020;-55
2024/03/05 06:58:37;;;;;;;24.15;13.50;;;;;;;;;;5078700;28;20132;-54
2024/03/05 07:01:09;;;;;;;32.05;13.43;;;;;;;;;;5072374;28;20032;-55
2024/03/05 07:03:35;;;;;;;28.57;13.80;;;;;;;;;;5071967;28;20020;-55
2024/03/05 07:06:09;;;;;;;28.48;13.07;;;;;;;;;;5071407;28;20103;-55
2024/03/05 07:08:38;;;;;;;27.77;13.52;;;;;;;;;;5079145;28;20072;-54
2024/03/05 07:11:05;;;;;;;28.27;11.95;;;;;;;;;;5079421;28;20044;-55
2024/03/05 07:13:31;;;;;;;28.80;14.07;;;;;;;;;;5070311;28;20082;-55
2024/03/05 07:15:57;;;;;;;26.05;13.93;;;;;;;;;;5071925;28;20032;-55
2024/03/05 07:18:23;;;;;;;24.90;12.38;;;;;;;;;;5076847;28;20051;-55
2024/03/05 07:20:49;;;;;;;33.40;14.10;;;;;;;;;;5067893;28;20024;-55
2024/03/05 07:23:16;;;;;;;26.60;12.00;;;;;;;;;;5068012;28;20029;-54
2024/03/05 07:25:43;;;;;;;28.23;12.95;;;;;;;;;;5077786;28;20024;-54
2024/03/05 07:28:10;;;;;;;25.00;12.82;;;;;;;;;;5072257;28;20043;-54
2024/03/05 07:30:37;;;;;;;25.13;11.48;;;;;;;;;;5072398;28;20028;-55
2024/03/05 07:33:03;;;;;;;28.63;13.57;;;;;;;;;;5071447;28;20101;-55
2024/03/05 07:35:29;;;;;;;32.47;13.25;;;;;;;;;;5073106;28;20032;-55
2024/03/05 07:37:55;;;;;;;29.05;13.32;;;;;;;;;;5076988;28;20039;-55
2024/03/05 07:40:22;;;;;;;25.70;13.13;;;;;;;;;;5087605;28;20035;-54
2024/03/05 07:42:53;;;;;;;30.88;12.05;;;;;;;;;;5082298;28;20028;-55
2024/03/05 07:45:19;;;;;;;23.17;12.73;;;;;;;;;;5074869;28;20032;-55
2024/03/05 07:47:46;;;;;;;27.73;13.50;;;;;;;;;;5072888;28;20025;-53
2024/03/05 07:50:12;;;;;;;30.48;12.30;;;;;;;;;;5071247;28;20051;-55
2024/03/05 07:52:39;;;;;;;31.08;12.00;;;;;;;;;;5071008;28;20032;-55
2024/03/05 07:55:07;;;;;;;28.30;12.90;;;;;;;;;;5071497;28;20071;-55
2024/03/05 07:57:34;;;;;;;28.17;12.60;;;;;;;;;;5071671;28;20158;-58
2024/03/05 08:00:00;;;;;;;34.45;14.10;;;;;;;;;;5071274;28;20430;-58
2024/03/05 08:02:26;;;;;;;31.40;13.57;;;;;;;;;;5070930;28;20028;-58
2024/03/05 08:04:52;;;;;;;28.98;12.55;;;;;;;;;;5073434;28;20495;-58
2024/03/05 08:07:18;;;;;;;28.88;12.82;;;;;;;;;;5080119;28;20029;-58
2024/03/05 08:09:44;;;;;;;31.48;13.10;;;;;;;;;;5071024;28;20027;-58
2024/03/05 08:12:10;;;;;;;26.95;13.13;;;;;;;;;;5079792;28;20029;-58
2024/03/05 08:14:36;;;;;;;32.80;12.77;;;;;;;;;;5071067;28;20032;-58
2024/03/05 08:17:03;;;;;;;26.10;12.63;;;;;;;;;;5080283;28;20039;-58
2024/03/05 08:19:29;;;;;;;28.55;12.32;;;;;;;;;;5089191;28;20467;-58
2024/03/05 08:21:55;;;;;;;26.65;12.45;;;;;;;;;;5091150;28;20032;-58
2024/03/05 08:24:21;;;;;;;28.45;13.32;;;;;;;;;;5091044;28;20433;-58
2024/03/05 08:26:49;;;;;;;26.67;12.88;;;;;;;;;;5097982;28;20089;-58
2024/03/05 08:29:15;;;;;;;26.95;12.60;;;;;;;;;;5091297;28;20016;-58
2024/03/05 08:31:42;;;;;;;29.88;11.75;;;;;;;;;;5091068;28;20035;-58
2024/03/05 08:34:08;;;;;;;27.60;12.05;;;;;;;;;;5090462;28;20028;-58
2024/03/05 08:36:36;;;;;;;28.52;11.90;;;;;;;;;;5090564;28;20036;-58
2024/03/05 08:39:05;;;;;;;25.08;12.50;;;;;;;;;;5091167;28;20031;-58
2024/03/05 08:41:31;;;;;;;27.45;12.18;;;;;;;;;;5093130;28;20120;-58
2024/03/05 08:43:57;;;;;;;29.30;12.38;;;;;;;;;;5090870;28;20017;-58
2024/03/05 08:46:23;;;;;;;30.25;12.20;;;;;;;;;;5090096;28;20035;-59
2024/03/05 08:48:49;;;;;;;32.63;12.32;;;;;;;;;;5090667;28;20043;-58
2024/03/05 08:51:15;;;;;;;24.58;12.13;;;;;;;;;;5090946;28;20031;-59
2024/03/05 08:53:41;;;;;;;23.80;11.93;;;;;;;;;;5090628;28;20024;-59
2024/03/05 08:56:07;;;;;;;23.08;12.15;;;;;;;;;;5090284;28;20499;-59
2024/03/05 08:58:33;;;;;;;24.65;12.32;;;;;;;;;;5090775;28;20031;-59
2024/03/05 09:00:59;;;;;;;22.77;11.75;;;;;;;;;;5091358;28;20033;-58
2024/03/05 09:03:25;;;;;;;24.42;12.13;;;;;;;;;;5105536;28;20051;-59
2024/03/05 09:05:51;;;;;;;24.27;12.27;;;;;;;;;;5099101;28;20039;-58
2024/03/05 09:08:17;;;;;;;25.02;11.40;;;;;;;;;;5091256;28;20104;-55
2024/03/05 09:10:46;;;;;;;26.90;11.50;;;;;;;;;;5090354;28;20024;-55
2024/03/05 09:13:12;;;;;;;24.90;12.93;;;;;;;;;;5090371;28;20486;-55
2024/03/05 09:15:39;;;;;;;23.67;11.60;;;;;;;;;;5090664;28;20055;-56
2024/03/05 09:18:07;;;;;;;31.40;11.55;;;;;;;;;;5078523;28;20056;-59
2024/03/05 09:20:33;;;;;;;24.50;12.65;;;;;;;;;;5081907;28;20039;-59
2024/03/05 09:22:59;;;;;;;22.60;10.32;;;;;;;;;;5089967;28;20454;-59
2024/03/05 09:25:28;;;;;;;25.88;11.48;;;;;;;;;;5089937;28;20137;-59
2024/03/05 09:27:54;;;;;;;20.08;10.80;;;;;;;;;;5090484;28;20069;-59
2024/03/05 09:30:20;;;;;;;19.50;10.18;;;;;;;;;;5090813;28;20498;-58
2024/03/05 09:32:46;;;;;;;18.85;9.73;;;;;;;;;;5067160;28;20401;-59
2024/03/05 09:35:12;;;;;;;26.42;11.77;;;;;;;;;;5088167;28;20027;-59
2024/03/05 09:37:38;;;;;;;21.13;11.23;;;;;;;;;;5042544;28;20391;-59
2024/03/05 09:40:14;;;;;;;26.25;13.32;;;;;;;;;;5073817;28;20033;-58
2024/03/05 09:42:40;;;;;;;22.42;10.52;;;;;;;;;;5092710;28;20059;-58
2024/03/05 09:45:09;;;;;;;24.75;11.48;;;;;;;;;;5093975;28;20395;-58
2024/03/05 09:47:36;;;;;;;33.88;11.00;;;;;;;;;;5094100;28;20121;-59
2024/03/05 09:50:04;;;;;;;23.67;11.48;;;;;;;;;;5092317;28;20032;-59
2024/03/05 09:52:32;;;;;;;25.10;10.95;;;;;;;;;;5092535;28;20036;-59
2024/03/05 09:55:00;;;;;;;21.70;10.02;;;;;;;;;;5093038;28;20039;-59
2024/03/05 09:57:28;;;;;;;21.48;9.57;;;;;;;;;;5087552;28;20042;-59
2024/03/05 09:59:54;;;;;;;25.80;9.70;;;;;;;;;;5078845;28;20053;-59
2024/03/05 10:02:22;;;;;;;18.20;8.20;;;;;;;;;;5093415;28;20055;-59
2024/03/05 10:04:48;;;;;;;20.13;8.70;;;;;;;;;;5089416;28;20027;-59
2024/03/05 10:07:24;;;;;;;26.20;9.75;;;;;;;;;;5087603;28;20380;-59
2024/03/05 10:10:03;;;;;;;22.90;9.38;;;;;;;;;;5081230;28;20040;-59
2024/03/05 10:12:29;;;;;;;22.02;8.73;;;;;;;;;;5079671;28;20048;-59
2024/03/05 10:14:55;;;;;;;21.23;8.43;;;;;;;;;;5087263;28;20395;-59
2024/03/05 10:17:22;;;;;;;21.20;7.25;;;;;;;;;;5089998;28;20052;-54
2024/03/05 10:19:48;;;;;;;12.65;7.65;;;;;;;;;;5093688;28;20024;-54
2024/03/05 10:22:14;;;;;;;20.27;8.43;;;;;;;;;;5092686;28;20498;-56
2024/03/05 10:24:40;;;;;;;17.05;7.50;;;;;;;;;;5092465;28;20028;-55
2024/03/05 10:27:06;;;;;;;14.48;6.72;;;;;;;;;;5101297;28;20028;-59
2024/03/05 10:29:37;;;;;;;16.10;7.60;;;;;;;;;;5096500;28;20349;-58
2024/03/05 10:32:04;;;;;;;16.83;7.57;;;;;;;;;;5092965;28;20035;-58
2024/03/05 10:34:30;;;;;;;18.90;7.25;;;;;;;;;;5092167;28;20028;-57
2024/03/05 10:37:01;;;;;;;18.30;7.82;;;;;;;;;;5092593;28;20035;-59
2024/03/05 10:39:28;;;;;;;16.92;7.00;;;;;;;;;;5093140;28;20103;-58
2024/03/05 10:41:59;;;;;;;17.88;7.45;;;;;;;;;;5092150;28;20032;-59
2024/03/05 10:44:25;;;;;;;20.65;6.75;;;;;;;;;;5091878;28;20028;-57
2024/03/05 10:46:53;;;;;;;17.73;7.35;;;;;;;;;;5092834;28;20081;-56
2024/03/05 10:49:20;;;;;;;14.65;6.32;;;;;;;;;;5092749;28;20030;-58
2024/03/05 10:51:48;;;;;;;12.57;6.60;;;;;;;;;;5092445;28;20387;-58
2024/03/05 10:54:14;;;;;;;14.57;6.60;;;;;;;;;;5099593;28;20071;-57
2024/03/05 10:56:40;;;;;;;19.70;7.10;;;;;;;;;;5099670;28;20383;-58
2024/03/05 11:01:42;;;;;;;17.20;7.18;;;;;;;;;;5092552;28;20039;-59
2024/03/05 11:04:15;;;;;;;19.50;7.53;;;;;;;;;;5091860;28;20028;-59
2024/03/05 11:06:42;;;;;;;16.45;6.45;;;;;;;;;;5095110;28;20034;-60
2024/03/05 11:09:15;;;;;;;21.27;7.07;;;;;;;;;;5099910;28;20459;-58
2024/03/05 11:11:46;;;;;;;15.38;8.32;;;;;;;;;;5092711;28;20036;-59
2024/03/05 11:14:12;;;;;;;11.55;6.82;;;;;;;;;;5091130;28;20115;-56
2024/03/05 11:16:38;;;;;;;12.13;6.53;;;;;;;;;;5091962;28;20468;-58
2024/03/05 11:19:05;;;;;;;17.63;6.45;;;;;;;;;;5097349;28;20031;-58
2024/03/05 11:21:35;;;;;;;12.75;6.25;;;;;;;;;;5092403;28;20038;-58
2024/03/05 11:24:02;;;;;;;14.68;5.20;;;;;;;;;;5091789;28;20012;-59
2024/03/05 11:26:32;;;;;;;16.52;6.32;;;;;;;;;;5091509;28;20511;-58
2024/03/05 11:29:01;;;;;;;15.20;5.55;;;;;;;;;;5091871;28;20055;-56
2024/03/05 11:31:27;;;;;;;15.23;5.45;;;;;;;;;;5092103;28;20115;-56
2024/03/05 11:34:02;;;;;;;16.38;5.70;;;;;;;;;;5091741;28;20135;-56
2024/03/05 11:36:30;;;;;;;14.32;5.97;;;;;;;;;;5091426;28;20387;-57
2024/03/05 11:39:03;;;;;;;17.88;6.00;;;;;;;;;;5090963;28;20032;-58
2024/03/05 11:41:30;;;;;;;;;;;;;;;;;;5091660;28;20028;-56
2024/03/05 11:43:56;;;;;;;19.58;6.78;;;;;;;;;;5091617;28;20388;-59
2024/03/05 11:46:39;;;;;;;16.08;6.00;;;;;;;;;;5091365;28;20108;-58
2024/03/05 11:49:06;;;;;;;18.47;8.17;;;;;;;;;;5078149;28;20032;-58
2024/03/05 11:51:32;;;;;;;15.43;5.90;;;;;;;;;;5091061;28;20113;-57
2024/03/05 11:53:58;;;;;;;15.85;6.18;;;;;;;;;;5090054;28;20099;-58
2024/03/05 11:56:24;;;;;;;17.38;5.95;;;;;;;;;;5091188;28;20484;-59
2024/03/05 11:58:54;;;;;;;13.35;6.15;;;;;;;;;;5091686;28;20039;-59
2024/03/05 12:01:20;;;;;;;11.60;5.45;;;;;;;;;;5093636;28;20096;-59
2024/03/05 12:03:46;;;;;;;14.25;5.72;;;;;;;;;;5091266;28;20026;-59
2024/03/05 12:06:15;;;;;;;17.00;5.22;;;;;;;;;;5089870;28;20032;-60
2024/03/05 12:08:41;;;;;;;9.90;4.70;;;;;;;;;;5093168;28;20039;-58
2024/03/05 12:11:08;;;;;;;12.32;4.60;;;;;;;;;;5099695;28;20020;-59
2024/03/05 12:13:34;;;;;;;15.45;5.07;;;;;;;;;;5091080;28;20099;-59
2024/03/05 12:16:10;;;;;;;7.70;4.85;;;;;;;;;;5093744;28;20023;-58
2024/03/05 12:18:38;;;;;;;13.57;4.50;;;;;;;;;;5078160;28;20080;-58
2024/03/05 12:21:06;;;;;;;12.25;4.93;;;;;;;;;;5073620;28;20017;-58
2024/03/05 12:23:33;;;;;;;9.05;4.38;;;;;;;;;;5077040;28;20090;-59
2024/03/05 12:26:00;;;;;;;12.70;4.15;;;;;;;;;;5073039;28;20039;-60
2024/03/05 12:28:26;;;;;;;7.95;3.55;;;;;;;;;;5079927;28;20037;-59
2024/03/05 12:30:53;;;;;;;7.40;4.18;;;;;;;;;;5076464;28;20111;-59
2024/03/05 12:33:20;;;;;;;10.88;4.68;;;;;;;;;;5079850;28;20048;-60
2024/03/05 12:35:47;;;;;;;5.57;3.55;;;;;;;;;;5070663;28;20017;-58
2024/03/05 12:38:13;;;;;;;7.50;3.58;;;;;;;;;;5072957;28;20103;-57
2024/03/05 12:40:41;;;;;;;11.45;4.30;;;;;;;;;;5073254;28;20548;-57
2024/03/05 12:43:08;;;;;;;12.35;4.20;;;;;;;;;;5070420;28;20028;-56
2024/03/05 12:45:34;;;;;;;12.20;3.95;;;;;;;;;;5069491;28;20028;-56
2024/03/05 12:48:02;;;;;;;12.00;3.75;;;;;;;;;;5070883;28;20069;-56
2024/03/05 12:50:32;;;;;;;12.40;3.95;;;;;;;;;;5075165;28;20032;-54
2024/03/05 12:53:00;;;;;;;9.82;4.07;;;;;;;;;;5070774;28;20017;-53
2024/03/05 12:55:27;;;;;;;5.50;3.40;;;;;;;;;;5083761;28;20028;-53
2024/03/05 12:58:03;;;;;;;10.43;3.30;;;;;;;;;;5071016;28;20024;-54
2024/03/05 13:00:34;;;;;;;8.32;3.75;;;;;;;;;;5077052;28;20094;-55
2024/03/05 13:03:04;;;;;;;8.55;4.10;;;;;;;;;;5075666;28;20126;-55
2024/03/05 13:05:30;;;;;;;8.63;3.92;;;;;;;;;;5072715;28;20104;-53
2024/03/05 13:07:56;;;;;;;8.80;4.35;;;;;;;;;;5074358;28;20025;-55
2024/03/05 13:10:22;;;;;;;11.35;3.80;;;;;;;;;;5080297;28;20091;-54
2024/03/05 13:12:48;;;;;;;14.00;3.42;;;;;;;;;;5087708;28;20028;-53
2024/03/05 13:15:14;;;;;;;9.40;3.97;;;;;;;;;;5091325;28;20082;-54
2024/03/05 13:17:40;;;;;;;10.80;3.70;;;;;;;;;;5083037;28;20036;-55
2024/03/05 13:20:18;;;;;;;8.10;3.90;;;;;;;;;;5084923;28;20023;-54
2024/03/05 13:22:44;;;;;;;12.95;3.95;;;;;;;;;;5089050;28;20035;-54
2024/03/05 13:25:15;;;;;;;10.82;4.28;;;;;;;;;;5091299;28;20047;-55
2024/03/05 13:27:41;;;;;;;13.02;3.92;;;;;;;;;;5082004;28;20028;-55
2024/03/05 13:30:10;;;;;;;13.18;3.78;;;;;;;;;;5073280;28;20143;-56
2024/03/05 13:32:39;;;;;;;10.07;3.33;;;;;;;;;;5084843;28;20039;-56
2024/03/05 13:35:07;;;;;;;8.40;3.75;;;;;;;;;;5079721;28;20037;-56
2024/03/05 13:37:36;;;;;;;7.40;3.42;;;;;;;;;;5074166;28;20025;-56
2024/03/05 13:40:03;;;;;;;7.57;3.50;;;;;;;;;;5082951;28;20036;-55
2024/03/05 13:42:29;;;;;;;13.55;4.00;;;;;;;;;;5082707;28;20039;-55
2024/03/05 13:44:55;;;;;;;8.98;3.50;;;;;;;;;;5093151;28;20417;-56
2024/03/05 13:47:21;;;;;;;8.27;3.30;;;;;;;;;;5074169;28;20021;-55
2024/03/05 13:49:48;;;;;;;12.82;4.07;;;;;;;;;;5086744;28;20020;-55
2024/03/05 13:52:14;;;;;;;7.38;3.80;;;;;;;;;;5072634;28;20028;-55
2024/03/05 13:54:40;;;;;;;8.73;3.88;;;;;;;;;;5077448;28;20404;-53
2024/03/05 13:57:07;;;;;;;7.72;3.67;;;;;;;;;;5073804;28;20036;-57
2024/03/05 13:59:33;;;;;;;8.73;4.15;;;;;;;;;;5073510;28;20388;-59
2024/03/05 14:02:00;;;;;;;10.75;4.45;;;;;;;;;;5073014;28;20391;-59
2024/03/05 14:04:26;;;;;;;9.43;4.70;;;;;;;;;;5072690;28;20033;-59
2024/03/05 14:06:52;;;;;;;12.23;4.72;;;;;;;;;;5073388;28;20029;-59
2024/03/05 14:09:20;;;;;;;8.45;5.28;;;;;;;;;;5073141;28;20089;-59
2024/03/05 14:11:46;;;;;;;11.07;5.65;;;;;;;;;;5072910;28;20028;-59
2024/03/05 14:14:19;;;;;;;14.00;5.47;;;;;;;;;;5073543;28;20028;-59
2024/03/05 14:16:47;;;;;;;8.15;5.15;;;;;;;;;;5073690;28;20431;-59
2024/03/05 14:19:13;;;;;;;11.57;4.65;;;;;;;;;;5092452;28;20048;-59
2024/03/05 14:21:39;;;;;;;10.95;5.63;;;;;;;;;;5101318;28;20028;-59
2024/03/05 14:24:05;;;;;;;9.07;5.32;;;;;;;;;;5092736;28;20024;-58
2024/03/05 14:26:31;;;;;;;10.02;4.50;;;;;;;;;;5100303;28;20024;-59
2024/03/05 14:28:56;;;;;;;11.88;5.00;;;;;;;;;;5093118;28;20387;-58
2024/03/05 14:31:24;;;;;;;9.55;5.00;;;;;;;;;;5092623;28;20097;-59